Time;durP1;ratioP1;P1;durP2;ratioP2;P2;SDS_P1;SDS_P2;PMS_P1;PMS_P2;Temp;Humidity;BMP_temperature;BMP_pressure;BME280_temperature;BME280_humidity;BME280_pressure;Samples;Min_cycle;Max_cycle;Signal;HPM_P1;HPM_P2
2023/01/17 00:01:53;;;;;;;24.40;10.15;;;;;;;0.30;100.00;96187.91;4862653;29;20128;-79
2023/01/17 00:10:03;;;;;;;19.88;8.23;;;;;;;0.24;100.00;96206.78;4859746;29;20396;-80
2023/01/17 00:12:30;;;;;;;16.70;8.02;;;;;;;0.21;100.00;96194.28;4842184;29;20059;-81
2023/01/17 00:14:57;;;;;;;22.92;9.07;;;;;;;0.40;100.00;96195.25;4833070;29;20442;-80
2023/01/17 00:17:24;;;;;;;15.65;7.93;;;;;;;0.24;100.00;96197.22;4838565;29;20120;-82
2023/01/17 01:35:25;;;;;;;17.95;7.97;;;;;;;0.35;100.00;96151.97;4853094;29;20089;-80
2023/01/17 01:37:51;;;;;;;16.55;7.30;;;;;;;0.31;100.00;96145.63;4847558;29;20071;-81
2023/01/17 01:40:18;;;;;;;13.63;6.90;;;;;;;0.47;100.00;96151.38;4853458;29;20069;-82
2023/01/17 01:42:54;;;;;;;16.25;7.13;;;;;;;0.36;100.00;96161.28;4851818;29;20044;-82
2023/01/17 01:45:23;;;;;;;16.20;7.05;;;;;;;0.37;100.00;96164.69;4851468;29;20082;-80
2023/01/17 01:47:54;;;;;;;17.65;7.72;;;;;;;0.26;100.00;96155.75;4845390;29;20473;-84
2023/01/17 01:50:20;;;;;;;14.45;6.80;;;;;;;0.15;100.00;96146.84;4853824;29;20040;-82
2023/01/17 01:52:49;;;;;;;17.75;8.60;;;;;;;0.21;100.00;96156.34;4847481;29;20104;-81
2023/01/17 01:55:20;;;;;;;21.40;8.77;;;;;;;0.47;100.00;96148.78;4852513;29;20057;-82
2023/01/17 01:57:49;;;;;;;23.17;8.50;;;;;;;0.43;100.00;96145.81;4846234;29;20059;-80
2023/01/17 02:00:23;;;;;;;16.98;8.02;;;;;;;0.36;100.00;96145.81;4831587;29;20021;-81
2023/01/17 02:02:52;;;;;;;16.02;7.63;;;;;;;0.45;100.00;96150.78;4854906;29;20045;-81
2023/01/17 02:05:21;;;;;;;12.90;7.18;;;;;;;0.32;100.00;96146.44;4854185;29;20040;-81
2023/01/17 02:08:04;;;;;;;14.05;7.10;;;;;;;0.45;100.00;96155.94;4850842;29;20029;-81
2023/01/17 02:10:38;;;;;;;15.93;6.72;;;;;;;0.49;100.00;96152.75;4847808;29;20489;-83
2023/01/17 02:13:05;;;;;;;14.38;6.47;;;;;;;0.41;100.00;96158.13;4833008;29;20405;-82
2023/01/17 02:15:55;;;;;;;12.05;5.75;;;;;;;0.64;100.00;96157.69;4849747;29;20089;-82
2023/01/17 02:18:39;;;;;;;11.00;4.50;;;;;;;0.52;100.00;96167.03;4855220;29;20477;-81
2023/01/17 02:21:21;;;;;;;9.32;4.30;;;;;;;0.70;100.00;96156.88;4851037;29;20045;-81
2023/01/17 02:24:01;;;;;;;10.90;4.95;;;;;;;0.92;100.00;96164.34;4852508;29;20029;-82
2023/01/17 02:26:54;;;;;;;11.00;4.43;;;;;;;0.84;100.00;96162.00;4852329;29;20029;-82
2023/01/17 02:29:41;;;;;;;16.48;3.60;;;;;;;0.97;100.00;96163.75;4847299;29;20101;-82
2023/01/17 02:32:23;;;;;;;8.02;3.33;;;;;;;1.09;100.00;96161.31;4849879;29;20505;-82
2023/01/17 02:35:00;;;;;;;9.60;3.37;;;;;;;1.10;100.00;96161.13;4848940;29;20116;-80
2023/01/17 02:37:36;;;;;;;4.25;2.80;;;;;;;1.19;100.00;96160.88;4850436;29;20560;-81
2023/01/17 02:40:08;;;;;;;6.93;2.95;;;;;;;1.13;100.00;96152.16;4849304;29;20038;-82
2023/01/17 02:42:41;;;;;;;5.22;3.05;;;;;;;1.04;100.00;96158.56;4848004;29;20065;-81
2023/01/17 02:45:07;;;;;;;8.57;3.00;;;;;;;0.96;100.00;96146.66;4848533;29;20033;-81
2023/01/17 02:47:33;;;;;;;7.13;2.72;;;;;;;0.94;100.00;96169.31;4848656;29;20061;-81
2023/01/17 02:50:11;;;;;;;7.75;3.03;;;;;;;0.91;100.00;96151.66;4854553;29;20084;-81
2023/01/17 02:52:50;;;;;;;10.23;3.40;;;;;;;1.02;100.00;96163.16;4848738;29;20030;-82
2023/01/17 02:55:49;;;;;;;8.90;4.50;;;;;;;0.86;100.00;96154.84;4846601;29;20485;-83
2023/01/17 02:58:23;;;;;;;7.97;3.70;;;;;;;0.80;100.00;96160.84;4855079;29;20066;-80
2023/01/17 03:01:16;;;;;;;12.10;3.60;;;;;;;0.73;100.00;96147.13;4846097;29;20034;-80
2023/01/17 03:03:57;;;;;;;9.57;4.32;;;;;;;0.95;100.00;96156.19;4852190;29;20033;-82
2023/01/17 03:06:42;;;;;;;8.52;3.53;;;;;;;0.77;100.00;96156.84;4853685;29;20046;-80
2023/01/17 03:09:09;;;;;;;11.50;4.15;;;;;;;0.70;100.00;96162.03;4852698;29;20038;-83
2023/01/17 03:11:35;;;;;;;13.05;4.47;;;;;;;0.76;100.00;96168.19;4853095;29;20129;-81
2023/01/17 03:14:01;;;;;;;11.32;4.82;;;;;;;0.71;100.00;96173.94;4850803;29;20370;-82
2023/01/17 03:16:30;;;;;;;12.43;5.40;;;;;;;0.82;100.00;96180.28;4845580;29;20040;-82
2023/01/17 03:18:56;;;;;;;14.23;5.68;;;;;;;0.78;100.00;96162.81;4853742;29;20116;-81
2023/01/17 03:21:22;;;;;;;10.55;4.70;;;;;;;0.67;100.00;96170.19;4838047;29;20442;-82
2023/01/17 03:23:48;;;;;;;11.25;5.22;;;;;;;0.72;100.00;96167.00;4851585;29;20065;-80
2023/01/17 03:26:14;;;;;;;9.88;4.80;;;;;;;0.44;100.00;96154.34;4850980;29;20117;-82
2023/01/17 03:28:40;;;;;;;10.77;4.88;;;;;;;0.58;100.00;96171.38;4850997;29;20512;-83
2023/01/17 03:31:05;;;;;;;14.38;5.10;;;;;;;0.74;100.00;96164.22;4848294;29;20539;-81
2023/01/17 03:33:31;;;;;;;13.45;5.45;;;;;;;0.64;100.00;96170.59;4851285;29;20117;-82
2023/01/17 03:35:57;;;;;;;13.70;5.25;;;;;;;0.58;100.00;96161.06;4833909;29;20040;-81
2023/01/17 03:38:24;;;;;;;14.02;5.70;;;;;;;0.65;100.00;96168.78;4853441;29;20455;-81
2023/01/17 03:40:50;;;;;;;12.13;5.55;;;;;;;0.69;100.00;96170.78;4849245;29;20029;-82
2023/01/17 03:43:21;;;;;;;15.23;6.40;;;;;;;0.67;100.00;96167.59;4851094;29;20045;-82
2023/01/17 03:45:53;;;;;;;12.77;6.03;;;;;;;0.63;100.00;96157.88;4851408;29;20053;-83
2023/01/17 03:48:20;;;;;;;13.55;6.38;;;;;;;0.65;100.00;96167.03;4849053;29;20042;-81
2023/01/17 03:50:50;;;;;;;15.77;5.70;;;;;;;0.57;100.00;96165.44;4848567;29;21023;-82
2023/01/17 03:53:24;;;;;;;16.98;5.55;;;;;;;0.44;100.00;96160.28;4853786;29;20408;-83
2023/01/17 03:55:55;;;;;;;19.35;7.00;;;;;;;0.33;100.00;96169.44;4852823;29;20053;-83
2023/01/17 03:58:21;;;;;;;15.63;6.15;;;;;;;0.27;100.00;96159.94;4851628;29;20052;-82
2023/01/17 04:00:47;;;;;;;17.38;6.47;;;;;;;0.28;100.00;96167.44;4858019;29;20305;-82
2023/01/17 04:03:12;;;;;;;16.70;6.45;;;;;;;0.37;100.00;96164.69;4856211;29;20038;-82
2023/01/17 04:05:40;;;;;;;14.45;5.72;;;;;;;0.44;100.00;96175.00;4852636;29;20033;-82
2023/01/17 04:08:08;;;;;;;15.63;6.55;;;;;;;0.22;100.00;96165.69;4858059;29;20029;-82
2023/01/17 04:10:33;;;;;;;17.50;6.50;;;;;;;0.27;100.00;96165.88;4854098;29;20045;-82
2023/01/17 04:13:02;;;;;;;22.02;6.75;;;;;;;0.17;100.00;96164.69;4855646;29;20030;-83
2023/01/17 04:15:28;;;;;;;15.27;6.75;;;;;;;0.41;100.00;96166.66;4850405;29;20484;-83
2023/01/17 04:17:54;;;;;;;13.85;5.78;;;;;;;0.36;100.00;96158.72;4835070;29;20063;-82
2023/01/17 04:20:40;;;;;;;14.38;5.97;;;;;;;0.45;100.00;96155.94;4850731;29;20048;-82
2023/01/17 04:23:06;;;;;;;10.60;5.53;;;;;;;0.21;100.00;96160.75;4853534;29;20053;-82
2023/01/17 04:25:32;;;;;;;15.75;5.80;;;;;;;0.11;100.00;96167.06;4851961;29;20445;-82
2023/01/17 04:27:59;;;;;;;16.27;6.03;;;;;;;0.11;100.00;96161.91;4856466;29;20093;-83
2023/01/17 04:30:26;;;;;;;16.25;6.93;;;;;;;-0.07;100.00;96159.94;4854982;29;20029;-81
2023/01/17 04:32:52;;;;;;;23.83;8.18;;;;;;;0.08;100.00;96146.84;4855081;29;20072;-82
2023/01/17 04:35:17;;;;;;;18.33;7.70;;;;;;;0.18;100.00;96150.78;4831735;29;20481;-82
2023/01/17 04:37:43;;;;;;;19.63;7.30;;;;;;;0.16;100.00;96163.09;4851540;29;20041;-84
2023/01/17 04:40:09;;;;;;;18.95;7.00;;;;;;;0.14;100.00;96151.19;4856663;29;20041;-82
2023/01/17 04:42:36;;;;;;;19.98;6.82;;;;;;;0.02;100.00;96157.16;4852370;29;20038;-82
2023/01/17 04:45:02;;;;;;;20.45;8.23;;;;;;;-0.03;100.00;96157.75;4852952;29;20112;-82
2023/01/17 04:47:27;;;;;;;17.52;6.30;;;;;;;0.06;100.00;96154.00;4851448;29;20057;-82
2023/01/17 04:49:53;;;;;;;21.63;7.10;;;;;;;0.25;100.00;96169.66;4849272;29;20022;-81
2023/01/17 04:52:19;;;;;;;16.25;7.57;;;;;;;0.06;100.00;96160.91;4848343;29;20052;-81
2023/01/17 04:54:49;;;;;;;16.48;6.55;;;;;;;0.12;100.00;96163.50;4854904;29;20028;-81
2023/01/17 04:57:15;;;;;;;17.33;7.13;;;;;;;0.17;100.00;96157.75;4848111;29;20038;-81
2023/01/17 04:59:42;;;;;;;17.42;6.53;;;;;;;0.20;100.00;96164.31;4851512;29;20030;-81
2023/01/17 05:02:07;;;;;;;16.77;7.28;;;;;;;0.12;100.00;96160.16;4851900;29;20041;-82
2023/01/17 05:04:33;;;;;;;17.58;5.88;;;;;;;0.09;100.00;96168.25;4851986;29;20413;-83
2023/01/17 05:06:59;;;;;;;16.88;6.25;;;;;;;-0.08;100.00;96157.56;4847880;29;20162;-82
2023/01/17 05:09:25;;;;;;;17.65;6.90;;;;;;;-0.15;100.00;96163.50;4849970;29;20029;-82
2023/01/17 05:11:50;;;;;;;15.05;6.10;;;;;;;-0.19;100.00;96167.47;4856678;29;20030;-81
2023/01/17 05:14:16;;;;;;;18.80;7.18;;;;;;;-0.26;100.00;96171.03;4849565;29;20592;-81
2023/01/17 05:16:41;;;;;;;14.85;6.43;;;;;;;-0.40;100.00;96163.28;4848571;29;20042;-83
2023/01/17 05:19:07;;;;;;;16.13;5.85;;;;;;;-0.37;100.00;96168.03;4834745;29;20046;-82
2023/01/17 05:21:32;;;;;;;12.75;5.60;;;;;;;-0.35;100.00;96170.41;4855496;29;20081;-82
2023/01/17 05:23:58;;;;;;;15.55;5.97;;;;;;;-0.29;100.00;96146.44;4852356;29;20060;-83
2023/01/17 05:26:23;;;;;;;15.23;5.47;;;;;;;0.02;100.00;96163.13;4855141;29;20034;-80
2023/01/17 05:28:50;;;;;;;15.40;5.50;;;;;;;-0.11;100.00;96161.31;4837414;29;20108;-82
2023/01/17 05:31:15;;;;;;;10.50;4.80;;;;;;;-0.12;100.00;96148.63;4849869;29;20038;-81
2023/01/17 05:33:41;;;;;;;13.20;5.50;;;;;;;-0.22;100.00;96165.25;4853232;29;20034;-80
2023/01/17 05:36:07;;;;;;;14.15;5.85;;;;;;;-0.34;100.00;96159.13;4854197;29;20029;-82
2023/01/17 05:38:33;;;;;;;18.52;5.75;;;;;;;-0.73;100.00;96162.19;4829527;29;20066;-79
2023/01/17 05:41:00;;;;;;;16.95;5.85;;;;;;;-0.60;100.00;96134.88;4852477;29;20056;-81
2023/01/17 05:43:27;;;;;;;14.80;6.32;;;;;;;-0.34;100.00;96161.69;4845665;29;20147;-81
2023/01/17 05:45:53;;;;;;;14.05;5.57;;;;;;;-0.31;100.00;96163.88;4850492;29;20034;-82
2023/01/17 05:48:19;;;;;;;15.35;6.28;;;;;;;-0.47;100.00;96155.53;4850512;29;20045;-83
2023/01/17 05:50:45;;;;;;;13.32;6.15;;;;;;;-0.40;100.00;96160.69;4853352;29;20034;-81
2023/01/17 05:53:13;;;;;;;11.45;5.18;;;;;;;-0.52;100.00;96163.06;4850102;29;20117;-83
2023/01/17 05:55:39;;;;;;;12.93;4.68;;;;;;;-0.46;100.00;96161.47;4850304;29;20054;-82
2023/01/17 05:58:07;;;;;;;12.27;5.05;;;;;;;-0.37;100.00;96164.66;4853395;29;20049;-82
2023/01/17 06:00:33;;;;;;;13.48;5.95;;;;;;;-0.32;100.00;96157.13;4851133;29;20086;-83
2023/01/17 06:02:59;;;;;;;11.32;5.20;;;;;;;-0.41;100.00;96153.94;4852323;29;20033;-83
2023/01/17 06:05:26;;;;;;;14.88;5.32;;;;;;;-0.53;100.00;96153.72;4856647;29;20176;-83
2023/01/17 06:07:53;;;;;;;12.25;5.18;;;;;;;-0.29;100.00;96161.91;4852894;29;20037;-83
2023/01/17 06:10:21;;;;;;;16.75;5.80;;;;;;;-0.50;100.00;96147.38;4856847;29;20437;-82
2023/01/17 06:12:47;;;;;;;15.20;5.85;;;;;;;-0.62;100.00;96147.16;4831673;29;20025;-83
2023/01/17 06:15:14;;;;;;;14.35;5.75;;;;;;;-0.46;100.00;96156.31;4852492;29;20462;-82
2023/01/17 06:17:40;;;;;;;12.18;6.05;;;;;;;-0.39;100.00;96166.63;4846678;29;20480;-82
2023/01/17 06:20:08;;;;;;;17.92;5.65;;;;;;;-0.15;100.00;96163.50;4851673;29;20038;-84
2023/01/17 06:22:34;;;;;;;15.32;5.57;;;;;;;-0.21;100.00;96161.69;4839031;29;20064;-82
2023/01/17 06:24:59;;;;;;;13.00;4.72;;;;;;;-0.25;100.00;96163.09;4853946;29;20029;-83
2023/01/17 06:27:25;;;;;;;13.38;5.22;;;;;;;-0.18;100.00;96161.31;4856434;29;20029;-84
2023/01/17 06:29:51;;;;;;;10.75;5.22;;;;;;;-0.04;100.00;96169.06;4852206;29;20033;-81
2023/01/17 06:32:17;;;;;;;13.02;5.57;;;;;;;-0.11;100.00;96163.09;4853955;29;20044;-83
2023/01/17 06:34:43;;;;;;;14.60;5.65;;;;;;;0.01;100.00;96177.00;4835631;29;20025;-82
2023/01/17 06:37:14;;;;;;;14.77;6.00;;;;;;;-0.15;100.00;96168.66;4848839;29;20030;-82
2023/01/17 06:39:40;;;;;;;16.08;6.68;;;;;;;-0.35;100.00;96167.84;4845755;29;20400;-83
2023/01/17 06:42:05;;;;;;;16.27;6.20;;;;;;;-0.23;100.00;96174.00;4847024;29;20037;-83
2023/01/17 06:44:31;;;;;;;14.68;6.40;;;;;;;-0.25;100.00;96178.56;4850676;29;20116;-83
2023/01/17 06:46:57;;;;;;;15.27;5.75;;;;;;;-0.18;100.00;96174.22;4853059;29;20036;-83
2023/01/17 06:49:23;;;;;;;12.90;5.13;;;;;;;-0.27;100.00;96180.53;4833740;29;20045;-84
2023/01/17 06:51:49;;;;;;;11.38;4.65;;;;;;;-0.23;100.00;96171.41;4854637;29;20073;-81
2023/01/17 06:54:14;;;;;;;11.75;5.07;;;;;;;-0.30;100.00;96173.97;4854296;29;20033;-81
2023/01/17 06:56:40;;;;;;;10.75;4.05;;;;;;;-0.27;100.00;96167.66;4850939;29;20596;-81
2023/01/17 06:59:06;;;;;;;12.50;4.97;;;;;;;-0.18;100.00;96169.06;4850856;29;20048;-85
2023/01/17 07:01:31;;;;;;;11.55;4.70;;;;;;;-0.15;100.00;96163.50;4850202;29;20038;-83
2023/01/17 07:03:57;;;;;;;10.85;4.78;;;;;;;-0.11;100.00;96178.56;4850154;29;20041;-84
2023/01/17 07:06:27;;;;;;;11.13;4.70;;;;;;;0.01;100.00;96187.31;4830355;29;20121;-84
2023/01/17 07:08:55;;;;;;;10.35;5.07;;;;;;;0.07;100.00;96181.38;4835877;29;20037;-83
2023/01/17 07:11:21;;;;;;;13.05;4.65;;;;;;;0.04;100.00;96201.59;4854371;29;20088;-82
2023/01/17 07:13:48;;;;;;;15.60;5.88;;;;;;;-0.16;100.00;96203.16;4852431;29;20038;-83
2023/01/17 07:16:13;;;;;;;9.95;4.78;;;;;;;-0.15;100.00;96197.03;4850286;29;20036;-81
2023/01/17 07:18:39;;;;;;;10.82;4.85;;;;;;;-0.29;100.00;96200.56;4851264;29;20472;-81
2023/01/17 07:21:13;;;;;;;7.88;4.05;;;;;;;-0.11;100.00;96199.19;4849431;29;20058;-82
2023/01/17 07:23:39;;;;;;;11.13;5.35;;;;;;;-0.03;100.00;96192.06;4847985;29;20499;-82
2023/01/17 07:26:05;;;;;;;13.00;5.78;;;;;;;0.16;100.00;96200.03;4850514;29;20037;-82
2023/01/17 07:28:32;;;;;;;15.35;6.03;;;;;;;0.07;100.00;96202.00;4846201;29;20034;-80
2023/01/17 07:31:02;;;;;;;12.95;5.07;;;;;;;0.18;100.00;96207.53;4851623;29;20037;-80
2023/01/17 07:33:28;;;;;;;15.48;5.38;;;;;;;0.09;100.00;96205.16;4856543;29;20044;-81
2023/01/17 07:35:53;;;;;;;13.57;6.15;;;;;;;-0.05;100.00;96204.38;4837907;29;20038;-80
2023/01/17 07:38:19;;;;;;;15.43;6.53;;;;;;;-0.02;100.00;96208.31;4854039;29;20033;-80
2023/01/17 07:40:45;;;;;;;18.00;6.78;;;;;;;0.11;100.00;96208.34;4855056;29;20481;-82
2023/01/17 07:43:15;;;;;;;12.88;5.72;;;;;;;0.13;100.00;96216.69;4856642;29;20041;-81
2023/01/17 07:45:50;;;;;;;13.63;6.00;;;;;;;0.13;100.00;96210.75;4852222;29;20552;-81
2023/01/17 07:48:17;;;;;;;18.27;6.10;;;;;;;0.27;100.00;96216.69;4852800;29;20029;-83
2023/01/17 07:50:43;;;;;;;14.13;5.65;;;;;;;0.27;100.00;96216.69;4851922;29;20037;-84
2023/01/17 07:53:09;;;;;;;12.70;5.22;;;;;;;0.09;100.00;96189.69;4854613;29;20242;-81
2023/01/17 07:55:34;;;;;;;17.25;7.30;;;;;;;0.25;100.00;96229.78;4831092;29;20054;-81
2023/01/17 07:58:01;;;;;;;14.05;6.32;;;;;;;0.51;100.00;96235.94;4849085;29;20034;-81
2023/01/17 08:00:27;;;;;;;15.48;6.47;;;;;;;0.14;100.00;96227.81;4842673;29;20040;-79
2023/01/17 08:02:56;;;;;;;19.00;6.82;;;;;;;0.19;100.00;96229.78;4853822;29;20098;-81
2023/01/17 08:05:22;;;;;;;16.85;6.70;;;;;;;0.23;100.00;96236.91;4825547;29;20052;-83
2023/01/17 08:07:48;;;;;;;14.35;6.97;;;;;;;0.17;100.00;96237.72;4859913;29;20183;-80
2023/01/17 08:10:16;;;;;;;13.00;6.53;;;;;;;0.09;100.00;96236.13;4836628;29;20038;-81
2023/01/17 08:12:47;;;;;;;16.92;6.35;;;;;;;0.09;100.00;96236.13;4851435;29;20038;-80
2023/01/17 08:15:14;;;;;;;25.48;9.23;;;;;;;0.03;100.00;96236.91;4852472;29;20033;-78
2023/01/17 08:17:47;;;;;;;17.73;8.07;;;;;;;0.10;100.00;96240.28;4856267;29;20041;-79
2023/01/17 08:20:13;;;;;;;;;;;;;;;0.05;100.00;96231.53;4856950;29;20078;-78
2023/01/17 08:22:39;;;;;;;16.25;7.85;;;;;;;0.07;100.00;96237.31;4854977;29;19924;-78
2023/01/17 08:25:05;;;;;;;15.57;7.50;;;;;;;0.08;100.00;96244.03;4851979;29;20382;-78
2023/01/17 08:27:31;;;;;;;17.40;7.22;;;;;;;0.02;100.00;96245.66;4841552;29;20030;-80
2023/01/17 08:29:57;;;;;;;19.60;8.43;;;;;;;0.04;100.00;96228.19;4836917;29;20034;-80
2023/01/17 08:32:23;;;;;;;18.88;7.22;;;;;;;0.03;100.00;96238.69;4852553;29;20516;-83
2023/01/17 08:34:48;;;;;;;20.05;7.85;;;;;;;0.07;100.00;96243.25;4848164;29;20537;-81
2023/01/17 08:37:14;;;;;;;21.75;7.43;;;;;;;0.06;100.00;96231.38;4851658;29;20465;-79
2023/01/17 08:39:39;;;;;;;15.50;6.47;;;;;;;0.09;100.00;96225.81;4853840;29;20037;-81
2023/01/17 08:42:05;;;;;;;17.58;6.85;;;;;;;0.34;100.00;96242.50;4856421;29;20442;-80
2023/01/17 08:44:30;;;;;;;15.93;6.25;;;;;;;0.47;100.00;96231.38;4847621;29;20045;-81
2023/01/17 08:47:00;;;;;;;17.85;6.75;;;;;;;0.39;100.00;96246.06;4848474;29;20036;-81
2023/01/17 08:49:51;;;;;;;;;;;;;;;0.52;100.00;96259.94;4853717;29;20052;-82
2023/01/17 08:52:16;;;;;;;15.13;5.80;;;;;;;0.41;100.00;96259.56;4855618;29;19978;-81
2023/01/17 08:54:42;;;;;;;17.02;7.45;;;;;;;0.38;100.00;96249.63;4834647;29;20037;-81
2023/01/17 08:57:09;;;;;;;15.10;6.95;;;;;;;0.25;100.00;96260.72;4848425;29;20046;-80
2023/01/17 08:59:35;;;;;;;13.38;5.53;;;;;;;0.46;100.00;96253.78;4843786;29;20022;-81
2023/01/17 09:02:05;;;;;;;13.35;5.32;;;;;;;0.62;100.00;96273.28;4848233;29;20030;-82
2023/01/17 09:04:31;;;;;;;11.40;5.13;;;;;;;0.82;100.00;96275.03;4835267;29;20038;-82
2023/01/17 09:06:56;;;;;;;9.63;4.03;;;;;;;0.49;100.00;96270.69;4856055;29;20400;-80
2023/01/17 09:09:22;;;;;;;13.88;5.07;;;;;;;0.72;100.00;96272.88;4834828;29;20033;-81
2023/01/17 09:11:48;;;;;;;13.27;5.95;;;;;;;0.75;100.00;96269.88;4845739;29;20057;-80
2023/01/17 09:14:14;;;;;;;12.93;5.40;;;;;;;0.92;100.00;96272.81;4851231;29;20541;-82
2023/01/17 09:16:40;;;;;;;11.02;4.50;;;;;;;0.74;100.00;96267.47;4848972;29;20159;-81
2023/01/17 09:19:06;;;;;;;12.18;5.30;;;;;;;0.87;100.00;96272.66;4855838;29;20508;-80
2023/01/17 09:21:31;;;;;;;12.68;5.38;;;;;;;0.76;100.00;96278.41;4855125;29;20469;-80
2023/01/17 09:23:58;;;;;;;15.15;6.50;;;;;;;0.81;100.00;96276.03;4837087;29;20034;-79
2023/01/17 09:26:26;;;;;;;14.75;6.63;;;;;;;0.81;100.00;96273.44;4851193;29;20035;-79
2023/01/17 09:28:52;;;;;;;13.75;6.57;;;;;;;0.78;100.00;96269.47;4836724;29;20098;-81
2023/01/17 09:31:20;;;;;;;18.52;6.82;;;;;;;0.92;100.00;96283.16;4850915;29;20548;-80
2023/01/17 09:33:50;;;;;;;14.23;6.60;;;;;;;0.81;100.00;96283.78;4849001;29;20124;-80
2023/01/17 09:36:16;;;;;;;15.73;6.90;;;;;;;0.84;100.00;96270.47;4846851;29;20470;-80
2023/01/17 09:38:42;;;;;;;18.15;7.95;;;;;;;0.71;100.00;96268.69;4850143;29;20037;-80
2023/01/17 09:41:26;;;;;;;19.00;8.25;;;;;;;0.74;100.00;96282.97;4845478;29;20121;-80
2023/01/17 09:44:13;;;;;;;20.75;8.23;;;;;;;0.75;100.00;96279.41;4847502;29;20382;-81
2023/01/17 09:46:43;;;;;;;17.35;8.38;;;;;;;0.88;100.00;96284.56;4849164;29;20037;-79
2023/01/17 09:49:34;;;;;;;50.85;19.38;;;;;;;0.98;100.00;96279.78;4849500;29;20040;-78
2023/01/17 09:52:00;;;;;;;17.58;7.15;;;;;;;0.94;100.00;96283.75;4850588;29;20042;-81
2023/01/17 09:54:34;;;;;;;17.10;8.30;;;;;;;1.17;100.00;96292.84;4852182;29;20613;-80
2023/01/17 09:57:25;;;;;;;17.45;7.00;;;;;;;1.39;100.00;96302.94;4846149;29;20047;-79
2023/01/17 10:00:02;;;;;;;18.10;7.40;;;;;;;1.30;100.00;96299.00;4852163;29;20038;-81
2023/01/17 10:02:43;;;;;;;13.82;6.57;;;;;;;1.33;100.00;96303.75;4849948;29;20046;-79
2023/01/17 10:05:27;;;;;;;16.35;8.20;;;;;;;1.47;100.00;96307.06;4853199;29;20433;-80
2023/01/17 10:08:06;;;;;;;14.07;5.72;;;;;;;1.49;100.00;96300.72;4854821;29;20146;-81
2023/01/17 10:10:31;;;;;;;15.38;6.55;;;;;;;1.28;100.00;96315.50;4850583;29;20152;-80
2023/01/17 10:13:23;;;;;;;12.13;6.15;;;;;;;1.55;100.00;96315.41;4847377;29;20026;-79
2023/01/17 10:15:57;;;;;;;9.40;4.45;;;;;;;1.61;100.00;96311.22;4850220;29;20038;-79
2023/01/17 10:18:42;;;;;;;15.45;6.05;;;;;;;1.81;100.00;96316.31;4851000;29;20030;-82
2023/01/17 10:21:44;;;;;;;12.80;5.65;;;;;;;1.90;100.00;96310.91;4851686;29;20044;-81
2023/01/17 10:24:43;;;;;;;7.90;4.93;;;;;;;1.97;100.00;96316.84;4849139;29;20094;-79
2023/01/17 10:27:20;;;;;;;11.02;5.07;;;;;;;1.97;100.00;96316.84;4828991;29;20121;-81
2023/01/17 10:29:48;;;;;;;14.05;6.38;;;;;;;2.02;100.00;96317.03;4847369;29;20057;-81
2023/01/17 10:32:14;;;;;;;10.45;5.38;;;;;;;1.88;100.00;96320.66;4851313;29;20377;-80
2023/01/17 10:34:51;;;;;;;12.30;6.32;;;;;;;1.67;100.00;96317.38;4853324;29;20033;-80
2023/01/17 10:37:42;;;;;;;12.10;5.40;;;;;;;2.05;100.00;96323.56;4849731;29;20041;-79
2023/01/17 10:40:23;;;;;;;13.35;5.70;;;;;;;2.28;100.00;96321.25;4854698;29;20520;-79
2023/01/17 10:42:59;;;;;;;13.23;6.60;;;;;;;2.07;100.00;96314.59;4846959;29;20121;-80
2023/01/17 10:45:27;;;;;;;12.15;5.63;;;;;;;1.80;100.00;96321.69;4852756;29;20038;-81
2023/01/17 10:48:25;;;;;;;9.23;4.93;;;;;;;2.36;100.00;96328.00;4850049;29;20056;-80
2023/01/17 10:51:02;;;;;;;9.27;4.38;;;;;;;2.31;100.00;96327.03;4838918;29;20057;-80
2023/01/17 10:53:59;;;;;;;7.10;3.28;;;;;;;2.43;100.00;96333.09;4851111;29;20067;-81
2023/01/17 10:56:28;;;;;;;10.00;3.97;;;;;;;2.44;100.00;96326.91;4849464;29;20097;-81
2023/01/17 10:59:04;;;;;;;8.32;4.47;;;;;;;2.34;100.00;96332.56;4848784;29;20384;-81
2023/01/17 11:01:30;;;;;;;10.98;4.35;;;;;;;2.40;100.00;96334.31;4848858;29;20503;-80
2023/01/17 11:03:57;;;;;;;8.50;4.30;;;;;;;2.36;100.00;96330.56;4851644;29;20058;-81
2023/01/17 11:06:25;;;;;;;8.90;4.97;;;;;;;2.21;100.00;96340.41;4835402;29;20396;-80
2023/01/17 11:09:04;;;;;;;17.73;9.70;;;;;;;2.26;100.00;96325.84;4854867;29;20125;-80
2023/01/17 11:11:35;;;;;;;19.83;9.23;;;;;;;2.51;100.00;96335.44;4855176;29;20045;-80
2023/01/17 11:14:15;;;;;;;19.95;9.65;;;;;;;2.32;100.00;96316.44;4859552;29;20041;-81
2023/01/17 11:16:42;;;;;;;13.40;6.72;;;;;;;2.16;100.00;96324.69;4852434;29;20095;-79
2023/01/17 11:19:14;;;;;;;14.98;7.03;;;;;;;2.21;100.00;96335.25;4855396;29;20041;-80
2023/01/17 11:21:50;;;;;;;16.40;7.28;;;;;;;2.48;100.00;96332.47;4857118;29;20388;-80
2023/01/17 11:24:21;;;;;;;17.15;7.60;;;;;;;2.31;100.00;96327.78;4853577;29;20050;-78
2023/01/17 11:26:48;;;;;;;9.18;5.03;;;;;;;2.46;100.00;96331.91;4851790;29;20072;-80
2023/01/17 11:29:25;;;;;;;14.65;7.68;;;;;;;2.38;100.00;96338.91;4850797;29;20053;-81
2023/01/17 11:31:52;;;;;;;12.05;5.93;;;;;;;2.30;100.00;96330.59;4852474;29;20481;-80
2023/01/17 11:34:24;;;;;;;9.15;5.15;;;;;;;2.36;100.00;96322.81;4849392;29;20038;-81
2023/01/17 11:37:16;;;;;;;8.43;5.22;;;;;;;2.63;100.00;96330.38;4852072;29;20052;-80
2023/01/17 11:39:41;;;;;;;12.60;5.72;;;;;;;2.70;100.00;96314.81;4852876;29;20047;-79
2023/01/17 11:42:31;;;;;;;13.48;6.55;;;;;;;2.37;100.00;96316.63;4848118;29;20108;-80
2023/01/17 11:45:42;;;;;;;15.88;6.93;;;;;;;2.59;100.00;96307.69;4855550;29;20037;-79
2023/01/17 11:48:07;;;;;;;13.45;6.30;;;;;;;2.45;100.00;96307.78;4853809;29;20038;-79
2023/01/17 11:50:37;;;;;;;9.85;5.63;;;;;;;2.66;100.00;96298.09;4852061;29;20042;-81
2023/01/17 11:53:18;;;;;;;12.93;6.55;;;;;;;2.27;100.00;96305.94;4856010;29;20038;-80
2023/01/17 11:56:04;;;;;;;12.27;5.93;;;;;;;2.33;100.00;96304.31;4857927;29;20068;-80
2023/01/17 11:58:33;;;;;;;15.00;7.25;;;;;;;2.16;100.00;96304.00;4851555;29;20043;-80
2023/01/17 12:01:20;;;;;;;13.50;6.22;;;;;;;2.29;100.00;96296.16;4852320;29;20041;-80
2023/01/17 12:03:53;;;;;;;12.43;6.32;;;;;;;2.43;100.00;96289.88;4849832;29;20030;-79
2023/01/17 12:06:36;;;;;;;19.15;9.40;;;;;;;2.35;100.00;96292.72;4852452;29;20031;-80
2023/01/17 12:09:21;;;;;;;21.38;11.18;;;;;;;2.07;100.00;96296.47;4850979;29;20473;-80
2023/01/17 12:15:23;;;;;;;;;;;;;;;2.27;100.00;96305.94;4817577;29;20433;-80
2023/01/17 12:18:19;;;;;;;9.25;3.67;;;;;;;2.27;100.00;96292.97;4848188;29;20061;-81
2023/01/17 12:20:59;;;;;;;9.18;4.35;;;;;;;2.39;100.00;96293.91;4851496;29;20376;-80
2023/01/17 12:23:34;;;;;;;11.90;5.13;;;;;;;2.58;100.00;96286.22;4852606;29;20456;-80
2023/01/17 12:26:22;;;;;;;14.35;5.55;;;;;;;2.43;100.00;96278.72;4849456;29;20436;-80
2023/01/17 12:28:56;;;;;;;12.35;5.93;;;;;;;2.36;100.00;96275.41;4850749;29;20088;-79
2023/01/17 12:31:38;;;;;;;9.68;4.95;;;;;;;2.43;100.00;96269.19;4850711;29;20112;-79
2023/01/17 12:34:04;;;;;;;11.13;5.47;;;;;;;2.25;100.00;96282.06;4853242;29;20041;-81
2023/01/17 12:36:50;;;;;;;9.02;5.38;;;;;;;2.29;100.00;96278.03;4858992;29;20041;-81
2023/01/17 12:39:20;;;;;;;7.88;4.22;;;;;;;2.24;100.00;96285.66;4864869;29;20058;-80
2023/01/17 12:41:51;;;;;;;9.30;4.95;;;;;;;2.30;100.00;96289.97;4864858;29;20048;-81
2023/01/17 12:44:20;;;;;;;10.88;5.30;;;;;;;2.27;100.00;96275.66;4851751;29;20105;-81
2023/01/17 12:46:53;;;;;;;13.43;5.40;;;;;;;2.48;100.00;96270.34;4828308;29;20045;-81
2023/01/17 12:49:32;;;;;;;13.48;5.95;;;;;;;2.37;100.00;96275.22;4849037;29;20544;-80
2023/01/17 12:52:05;;;;;;;13.40;6.57;;;;;;;2.22;100.00;96287.66;4836352;29;20121;-81
2023/01/17 12:54:41;;;;;;;13.70;6.53;;;;;;;2.27;100.00;96285.22;4849756;29;20093;-80
2023/01/17 12:57:19;;;;;;;15.63;6.25;;;;;;;1.84;100.00;96302.97;4855848;29;20109;-80
2023/01/17 12:59:53;;;;;;;12.30;7.03;;;;;;;2.09;100.00;96291.88;4846193;29;20132;-80
2023/01/17 13:02:21;;;;;;;15.63;8.23;;;;;;;1.97;100.00;96289.19;4855267;29;20041;-84
2023/01/17 13:05:22;;;;;;;11.10;5.50;;;;;;;2.20;100.00;96289.66;4856041;29;20038;-81
2023/01/17 13:08:16;;;;;;;12.65;6.07;;;;;;;2.26;100.00;96301.75;4832851;29;20385;-81